createdAt,value
2023-05-09T00:01:46.624Z,4.40
2023-05-09T00:04:48.141Z,4.43
2023-05-09T00:07:49.802Z,4.65
2023-05-09T00:10:51.199Z,4.82
2023-05-09T00:13:53.255Z,4.10
2023-05-09T00:16:55.032Z,3.90
2023-05-09T00:19:56.632Z,4.20
2023-05-09T00:22:57.972Z,4.78
2023-05-09T00:25:59.499Z,4.55
2023-05-09T00:29:00.893Z,4.75
2023-05-09T00:32:02.458Z,4.13
2023-05-09T00:35:04.309Z,4.55
2023-05-09T00:38:05.671Z,4.65
2023-05-09T00:41:07.018Z,4.43
2023-05-09T00:44:08.533Z,5.00
2023-05-09T00:47:09.963Z,4.30
2023-05-09T00:50:11.438Z,4.68
2023-05-09T00:53:13.204Z,4.15
2023-05-09T00:56:15.649Z,4.40
2023-05-09T00:59:18.107Z,4.72
2023-05-09T01:02:20.526Z,5.53
2023-05-09T01:05:27.175Z,4.32
2023-05-09T01:08:43.020Z,4.65
2023-05-09T01:11:57.147Z,4.22
2023-05-09T01:15:10.337Z,5.43
2023-05-09T01:18:19.316Z,4.55
2023-05-09T01:21:27.845Z,4.35
2023-05-09T01:25:07.449Z,5.07
2023-05-09T01:28:16.318Z,5.15
2023-05-09T01:31:19.571Z,4.13
2023-05-09T01:34:24.357Z,4.30
2023-05-09T01:37:31.630Z,5.00
2023-05-09T01:40:34.945Z,4.85
2023-05-09T01:43:38.074Z,4.93
2023-05-09T01:46:40.129Z,4.80
2023-05-09T01:49:42.803Z,4.75
2023-05-09T01:52:48.018Z,4.80
2023-05-09T01:55:51.588Z,4.72
2023-05-09T01:58:55.786Z,4.32
2023-05-09T02:01:57.977Z,4.53
2023-05-09T02:05:01.024Z,4.80
2023-05-09T02:08:02.509Z,5.00
2023-05-09T02:11:03.962Z,4.78
2023-05-09T02:14:06.311Z,4.95
2023-05-09T02:17:09.512Z,4.90
2023-05-09T02:20:11.619Z,4.72
2023-05-09T02:23:13.168Z,5.38
2023-05-09T02:26:14.769Z,4.82
2023-05-09T02:29:19.682Z,4.22
2023-05-09T02:35:27.198Z,4.97
2023-05-09T02:38:28.553Z,4.87
2023-05-09T02:41:30.779Z,4.78
2023-05-09T02:44:32.847Z,5.05
2023-05-09T02:47:34.253Z,4.35
2023-05-09T02:50:38.098Z,5.07
2023-05-09T02:53:39.501Z,5.57
2023-05-09T02:56:40.874Z,4.95
2023-05-09T02:59:42.282Z,4.82
2023-05-09T03:02:43.865Z,5.75
2023-05-09T03:05:45.483Z,5.85
2023-05-09T03:08:46.827Z,5.40
2023-05-09T03:11:48.164Z,5.80
2023-05-09T03:14:49.556Z,6.25
2023-05-09T03:17:50.981Z,5.90
2023-05-09T03:20:52.479Z,5.72
2023-05-09T03:23:53.839Z,5.50
2023-05-09T03:26:55.238Z,5.45
2023-05-09T03:29:56.725Z,5.30
2023-05-09T03:32:58.130Z,5.38
2023-05-09T03:35:59.485Z,6.05
2023-05-09T03:39:00.945Z,5.72
2023-05-09T03:42:02.346Z,5.50
2023-05-09T03:45:04.023Z,6.07
2023-05-09T03:48:08.523Z,5.65
2023-05-09T03:51:10.083Z,4.90
2023-05-09T03:54:12.207Z,6.25
2023-05-09T03:57:13.636Z,6.18
2023-05-09T04:00:15.282Z,6.40
2023-05-09T04:03:16.802Z,5.90
2023-05-09T04:06:18.834Z,5.95
2023-05-09T04:09:20.370Z,5.95
2023-05-09T04:12:21.997Z,6.22
2023-05-09T04:15:26.302Z,6.90
2023-05-09T04:18:27.880Z,6.00
2023-05-09T04:21:29.305Z,5.93
2023-05-09T04:24:30.684Z,6.45
2023-05-09T04:27:32.040Z,6.57
2023-05-09T04:30:33.393Z,5.88
2023-05-09T04:33:35.913Z,5.88
2023-05-09T04:36:37.270Z,6.10
2023-05-09T04:39:39.048Z,6.40
2023-05-09T04:42:41.241Z,6.53
2023-05-09T04:45:42.612Z,5.80
2023-05-09T04:48:44.026Z,6.28
2023-05-09T04:51:45.488Z,6.32
2023-05-09T04:54:46.897Z,6.18
2023-05-09T04:57:48.281Z,5.97
2023-05-09T05:00:49.979Z,7.45
2023-05-09T05:03:51.336Z,6.30
2023-05-09T05:06:52.744Z,6.47
2023-05-09T05:09:54.114Z,7.22
2023-05-09T05:12:55.506Z,5.65
2023-05-09T05:15:58.342Z,7.25
2023-05-09T05:18:59.782Z,7.35
2023-05-09T05:22:01.494Z,6.85
2023-05-09T05:25:04.503Z,6.65
2023-05-09T05:28:06.029Z,6.53
2023-05-09T05:31:07.736Z,6.47
2023-05-09T05:34:09.168Z,6.68
2023-05-09T05:37:10.590Z,6.88
2023-05-09T05:40:12.012Z,6.60
2023-05-09T05:43:13.898Z,6.95
2023-05-09T05:46:15.338Z,7.03
2023-05-09T05:49:16.721Z,6.85
2023-05-09T05:52:18.124Z,7.40
2023-05-09T05:55:19.809Z,7.80
2023-05-09T05:58:21.724Z,7.88
2023-05-09T06:01:23.071Z,8.00
2023-05-09T06:04:24.926Z,7.63
2023-05-09T06:07:26.654Z,6.70
2023-05-09T06:10:28.101Z,7.20
2023-05-09T06:13:29.510Z,7.43
2023-05-09T06:16:31.052Z,7.70
2023-05-09T06:19:32.428Z,7.38
2023-05-09T06:22:33.902Z,8.18
2023-05-09T06:25:35.277Z,8.13
2023-05-09T06:28:37.144Z,7.93
2023-05-09T06:31:39.162Z,7.50
2023-05-09T06:34:41.969Z,7.38
2023-05-09T06:37:43.361Z,7.35
2023-05-09T06:40:44.714Z,8.15
2023-05-09T06:43:46.084Z,8.13
2023-05-09T06:46:47.554Z,7.30
2023-05-09T06:49:48.972Z,7.55
2023-05-09T06:52:50.374Z,7.32
2023-05-09T06:55:51.747Z,7.10
2023-05-09T06:58:53.385Z,7.18
2023-05-09T07:01:55.818Z,7.47
2023-05-09T07:04:57.333Z,7.03
2023-05-09T07:07:58.789Z,7.15
2023-05-09T07:11:00.169Z,6.40
2023-05-09T07:14:01.583Z,6.65
2023-05-09T07:17:21.182Z,6.50
2023-05-09T07:20:23.899Z,5.75
2023-05-09T07:23:26.965Z,6.68
2023-05-09T07:26:28.330Z,6.40
2023-05-09T07:29:29.796Z,6.68
2023-05-09T07:32:31.261Z,7.28
2023-05-09T07:35:32.624Z,6.25
2023-05-09T07:38:34.017Z,5.57
2023-05-09T07:41:35.373Z,5.15
2023-05-09T07:44:36.773Z,4.68
2023-05-09T07:47:38.228Z,5.70
2023-05-09T07:50:40.293Z,4.78
2023-05-09T07:53:41.649Z,4.95
2023-05-09T07:56:43.052Z,5.50
2023-05-09T07:59:44.403Z,4.97
2023-05-09T08:02:45.963Z,5.50
2023-05-09T08:05:47.450Z,4.55
2023-05-09T08:08:48.809Z,5.40
2023-05-09T08:11:50.260Z,5.35
2023-05-09T08:14:51.668Z,5.13
2023-05-09T08:17:53.149Z,4.85
2023-05-09T08:20:54.599Z,4.40
2023-05-09T08:23:55.984Z,4.63
2023-05-09T08:26:57.393Z,4.07
2023-05-09T08:29:58.753Z,3.72
2023-05-09T08:33:00.334Z,4.03
2023-05-09T08:36:02.419Z,3.55
2023-05-09T08:39:03.888Z,3.80
2023-05-09T08:42:06.024Z,4.15
2023-05-09T08:45:09.723Z,3.58
2023-05-09T08:48:11.694Z,3.85
2023-05-09T08:51:13.767Z,4.32
2023-05-09T08:54:15.821Z,3.95
2023-05-09T08:57:17.417Z,3.90
2023-05-09T09:00:21.389Z,4.68
2023-05-09T09:03:23.953Z,4.07
2023-05-09T09:06:25.877Z,4.45
2023-05-09T09:09:28.280Z,4.18
2023-05-09T09:12:29.940Z,3.40
2023-05-09T09:15:35.951Z,3.83
2023-05-09T09:18:39.308Z,3.42
2023-05-09T09:21:43.282Z,3.53
2023-05-09T09:24:44.685Z,4.43
2023-05-09T09:27:46.066Z,4.03
2023-05-09T09:30:48.335Z,3.58
2023-05-09T09:33:50.206Z,3.60
2023-05-09T09:36:51.615Z,3.53
2023-05-09T09:39:57.133Z,3.33
2023-05-09T09:42:58.514Z,3.83
2023-05-09T09:46:04.228Z,3.60
2023-05-09T09:49:05.668Z,3.40
2023-05-09T09:52:07.069Z,3.80
2023-05-09T09:55:08.795Z,3.10
2023-05-09T09:58:17.181Z,3.38
2023-05-09T10:01:18.637Z,3.20
2023-05-09T10:04:20.133Z,3.13
2023-05-09T10:07:23.918Z,3.67
2023-05-09T10:10:27.402Z,3.00
2023-05-09T10:13:29.078Z,3.25
2023-05-09T10:16:40.108Z,3.13
2023-05-09T10:19:46.374Z,3.33
2023-05-09T10:22:49.012Z,2.83
2023-05-09T10:26:16.512Z,2.83
2023-05-09T10:29:22.897Z,3.03
2023-05-09T10:32:31.362Z,2.80
2023-05-09T10:35:40.706Z,2.80
2023-05-09T10:38:42.824Z,2.67
2023-05-09T10:41:44.666Z,2.47
2023-05-09T10:44:49.670Z,2.58
2023-05-09T10:47:52.981Z,3.00
2023-05-09T10:50:55.704Z,2.60
2023-05-09T10:53:57.900Z,2.40
2023-05-09T10:57:00.124Z,2.70
2023-05-09T11:00:01.516Z,2.83
2023-05-09T11:03:06.888Z,2.72
2023-05-09T11:06:08.642Z,2.65
2023-05-09T11:09:38.249Z,2.97
2023-05-09T11:12:57.949Z,2.80
2023-05-09T11:16:02.751Z,2.50
2023-05-09T11:19:05.844Z,2.80
2023-05-09T11:22:20.077Z,2.40
2023-05-09T11:25:25.958Z,4.33
2023-05-09T11:28:30.198Z,3.05
2023-05-09T11:31:31.638Z,2.45
2023-05-09T11:34:34.210Z,2.75
2023-05-09T11:38:05.515Z,2.70
2023-05-09T11:41:07.168Z,2.28
2023-05-09T11:44:27.875Z,2.40
2023-05-09T11:47:30.712Z,2.80
2023-05-09T11:50:32.100Z,3.10
2023-05-09T11:53:33.717Z,3.00
2023-05-09T11:56:36.285Z,3.35
2023-05-09T11:59:38.358Z,2.55
2023-05-09T12:02:40.002Z,2.80
2023-05-09T12:05:42.603Z,2.30
2023-05-09T12:08:45.558Z,2.53
2023-05-09T12:11:50.328Z,2.20
2023-05-09T12:14:51.974Z,2.78
2023-05-09T12:18:07.901Z,2.22
2023-05-09T12:21:09.458Z,2.38
2023-05-09T12:24:10.851Z,2.85
2023-05-09T12:27:12.523Z,2.70
2023-05-09T12:30:16.056Z,2.22
2023-05-09T12:33:18.030Z,2.15
2023-05-09T12:36:19.486Z,1.90
2023-05-09T12:39:24.528Z,1.88
2023-05-09T12:42:29.236Z,1.95
2023-05-09T12:48:37.865Z,2.40
2023-05-09T12:51:49.254Z,2.05
2023-05-09T12:54:52.440Z,1.70
2023-05-09T12:58:02.251Z,1.70
2023-05-09T13:01:04.681Z,1.60
2023-05-09T13:04:06.695Z,1.77
2023-05-09T13:07:11.306Z,1.70
2023-05-09T13:10:14.456Z,2.15
2023-05-09T13:13:16.663Z,1.33
2023-05-09T13:16:18.315Z,1.60
2023-05-09T13:19:19.828Z,2.08
2023-05-09T13:22:21.182Z,1.35
2023-05-09T13:25:22.547Z,1.85
2023-05-09T13:28:23.911Z,1.80
2023-05-09T13:31:25.556Z,1.73
2023-05-09T13:34:27.120Z,2.00
2023-05-09T13:37:28.593Z,1.50
2023-05-09T13:40:29.974Z,1.77
2023-05-09T13:43:31.307Z,1.60
2023-05-09T13:46:32.735Z,1.73
2023-05-09T13:49:34.931Z,1.63
2023-05-09T13:52:36.354Z,1.63
2023-05-09T13:55:37.873Z,1.73
2023-05-09T13:58:39.229Z,1.70
2023-05-09T14:01:41.112Z,2.35
2023-05-09T14:04:42.538Z,1.90
2023-05-09T14:07:44.981Z,2.00
2023-05-09T14:10:46.395Z,1.60
2023-05-09T14:13:47.837Z,1.92
2023-05-09T14:16:49.645Z,1.70
2023-05-09T14:19:51.057Z,1.90
2023-05-09T14:22:54.973Z,1.80
2023-05-09T14:25:56.409Z,1.80
2023-05-09T14:28:57.804Z,1.40
2023-05-09T14:31:59.161Z,1.75
2023-05-09T14:35:00.702Z,2.05
2023-05-09T14:38:03.029Z,1.92
2023-05-09T14:41:04.564Z,1.13
2023-05-09T14:44:05.975Z,1.58
2023-05-09T14:47:08.434Z,1.50
2023-05-09T14:50:11.410Z,1.73
2023-05-09T14:53:13.225Z,1.50
2023-05-09T14:56:14.613Z,1.60
2023-05-09T14:59:16.301Z,1.48
2023-05-09T15:02:17.810Z,1.00
2023-05-09T15:05:19.203Z,1.45
2023-05-09T15:08:20.718Z,1.67
2023-05-09T15:11:22.522Z,1.55
2023-05-09T15:14:24.701Z,1.70
2023-05-09T15:17:26.470Z,1.67
2023-05-09T15:20:27.857Z,1.45
2023-05-09T15:23:29.600Z,1.70
2023-05-09T15:26:31.149Z,2.00
2023-05-09T15:29:32.525Z,1.92
2023-05-09T15:32:34.662Z,1.50
2023-05-09T15:35:36.732Z,1.35
2023-05-09T15:38:38.535Z,1.80
2023-05-09T15:41:40.347Z,2.13
2023-05-09T15:44:42.768Z,1.88
2023-05-09T15:47:44.254Z,1.75
2023-05-09T15:50:45.652Z,2.05
2023-05-09T15:53:47.162Z,2.08
2023-05-09T15:56:48.512Z,1.80
2023-05-09T15:59:49.885Z,2.00
2023-05-09T16:02:51.396Z,2.20
2023-05-09T16:05:53.207Z,1.92
2023-05-09T16:08:54.684Z,1.80
2023-05-09T16:11:56.345Z,1.75
2023-05-09T16:14:57.783Z,2.15
2023-05-09T16:17:59.121Z,2.00
2023-05-09T16:21:00.565Z,2.30
2023-05-09T16:24:03.206Z,1.80
2023-05-09T16:27:04.705Z,1.80
2023-05-09T16:30:06.632Z,1.75
2023-05-09T16:33:08.123Z,2.00
2023-05-09T16:36:09.615Z,1.85
2023-05-09T16:39:10.962Z,2.00
2023-05-09T16:42:13.408Z,2.15
2023-05-09T16:45:14.864Z,2.00
2023-05-09T16:48:17.847Z,2.25
2023-05-09T16:51:19.299Z,2.33
2023-05-09T16:54:21.329Z,2.20
2023-05-09T16:57:22.803Z,2.60
2023-05-09T17:00:24.175Z,2.92
2023-05-09T17:03:25.622Z,1.85
2023-05-09T17:06:27.963Z,2.47
2023-05-09T17:09:29.626Z,2.72
2023-05-09T17:12:31.015Z,2.60
2023-05-09T17:15:34.221Z,2.58
2023-05-09T17:18:38.044Z,2.53
2023-05-09T17:21:41.462Z,2.67
2023-05-09T17:24:43.627Z,2.75
2023-05-09T17:27:45.236Z,2.42
2023-05-09T17:30:46.771Z,2.42
2023-05-09T17:33:48.143Z,2.30
2023-05-09T17:36:49.906Z,2.50
2023-05-09T17:39:51.643Z,2.33
2023-05-09T17:42:53.224Z,2.05
2023-05-09T17:45:54.645Z,2.88
2023-05-09T17:48:56.299Z,3.03
2023-05-09T17:51:57.656Z,2.85
2023-05-09T17:55:00.299Z,3.17
2023-05-09T17:58:01.737Z,3.00
2023-05-09T18:01:03.148Z,2.72
2023-05-09T18:04:04.654Z,2.65
2023-05-09T18:07:06.089Z,2.65
2023-05-09T18:10:08.795Z,2.78
2023-05-09T18:13:10.814Z,2.38
2023-05-09T18:16:12.335Z,2.70
2023-05-09T18:19:13.777Z,2.63
2023-05-09T18:22:15.908Z,2.97
2023-05-09T18:25:17.358Z,2.70
2023-05-09T18:28:24.342Z,2.75
2023-05-09T18:31:25.872Z,3.63
2023-05-09T18:34:28.262Z,3.05
2023-05-09T18:37:29.819Z,2.80
2023-05-09T18:40:32.525Z,3.10
2023-05-09T18:43:35.237Z,2.75
2023-05-09T18:46:38.003Z,3.40
2023-05-09T18:49:39.434Z,2.53
2023-05-09T18:52:40.903Z,2.90
2023-05-09T18:55:42.726Z,2.70
2023-05-09T18:58:44.457Z,3.83
2023-05-09T19:01:45.853Z,3.25
2023-05-09T19:04:48.109Z,3.20
2023-05-09T19:07:49.821Z,2.75
2023-05-09T19:10:51.350Z,3.17
2023-05-09T19:13:53.229Z,2.88
2023-05-09T19:16:54.690Z,3.15
2023-05-09T19:19:56.126Z,3.03
2023-05-09T19:22:58.169Z,2.97
2023-05-09T19:25:59.919Z,3.47
2023-05-09T19:29:04.083Z,3.85
2023-05-09T19:32:06.947Z,3.25
2023-05-09T19:35:08.991Z,3.70
2023-05-09T19:38:13.009Z,3.03
2023-05-09T19:41:14.401Z,3.70
2023-05-09T19:44:15.831Z,4.00
2023-05-09T19:47:17.204Z,3.63
2023-05-09T19:50:18.814Z,3.35
2023-05-09T19:53:20.267Z,3.22
2023-05-09T19:56:23.359Z,3.45
2023-05-09T19:59:24.778Z,3.28
2023-05-09T20:02:26.282Z,3.70
2023-05-09T20:05:27.698Z,3.28
2023-05-09T20:08:29.913Z,3.45
2023-05-09T20:11:31.289Z,3.28
2023-05-09T20:14:32.835Z,3.15
2023-05-09T20:17:34.276Z,3.58
2023-05-09T20:20:35.721Z,3.22
2023-05-09T20:23:38.043Z,3.05
2023-05-09T20:26:39.457Z,2.97
2023-05-09T20:29:40.968Z,3.60
2023-05-09T20:32:43.052Z,3.38
2023-05-09T20:35:44.680Z,3.42
2023-05-09T20:38:46.007Z,3.10
2023-05-09T20:41:49.034Z,3.47
2023-05-09T20:44:51.507Z,3.47
2023-05-09T20:47:52.894Z,3.80
2023-05-09T20:50:54.258Z,3.22
2023-05-09T20:53:55.699Z,3.08
2023-05-09T20:56:57.143Z,2.90
2023-05-09T20:59:58.597Z,3.00
2023-05-09T21:03:00.471Z,3.10
2023-05-09T21:06:02.058Z,2.80
2023-05-09T21:09:05.360Z,2.80
2023-05-09T21:12:07.789Z,2.65
2023-05-09T21:15:10.934Z,3.10
2023-05-09T21:18:12.325Z,2.92
2023-05-09T21:21:13.721Z,2.72
2023-05-09T21:24:15.066Z,3.22
2023-05-09T21:27:16.605Z,2.85
2023-05-09T21:30:18.128Z,3.13
2023-05-09T21:33:20.650Z,3.03
2023-05-09T21:36:22.098Z,2.50
2023-05-09T21:39:23.488Z,2.75
2023-05-09T21:42:24.853Z,3.08
2023-05-09T21:45:26.231Z,3.00
2023-05-09T21:48:27.657Z,3.08
2023-05-09T21:51:29.533Z,3.40
2023-05-09T21:54:30.940Z,3.20
2023-05-09T21:57:32.296Z,3.35
2023-05-09T22:00:33.733Z,3.13
2023-05-09T22:03:35.791Z,3.70
2023-05-09T22:06:37.292Z,3.05
2023-05-09T22:09:38.634Z,4.25
2023-05-09T22:12:40.067Z,3.60
2023-05-09T22:15:42.183Z,3.42
2023-05-09T22:18:43.558Z,3.47
2023-05-09T22:21:44.954Z,3.10
2023-05-09T22:24:46.318Z,3.13
2023-05-09T22:27:47.776Z,3.20
2023-05-09T22:30:49.236Z,4.20
2023-05-09T22:33:50.666Z,3.85
2023-05-09T22:36:54.337Z,3.58
2023-05-09T22:39:55.767Z,3.83
2023-05-09T22:42:57.199Z,3.95
2023-05-09T22:45:58.568Z,4.82
2023-05-09T22:48:59.922Z,4.97
2023-05-09T22:52:01.518Z,5.05
2023-05-09T22:55:03.382Z,4.43
2023-05-09T22:58:05.942Z,4.45
2023-05-09T23:01:07.343Z,5.55
2023-05-09T23:04:08.729Z,4.72
2023-05-09T23:07:10.109Z,5.70
2023-05-09T23:10:11.492Z,5.40
2023-05-09T23:13:12.853Z,5.43
2023-05-09T23:16:14.327Z,5.45
2023-05-09T23:19:15.699Z,5.82
2023-05-09T23:22:17.077Z,5.07
2023-05-09T23:25:18.517Z,5.63
2023-05-09T23:28:25.100Z,5.70
2023-05-09T23:31:26.520Z,5.90
2023-05-09T23:34:27.961Z,6.13
2023-05-09T23:37:29.359Z,5.85
2023-05-09T23:40:30.826Z,6.07
2023-05-09T23:43:32.637Z,5.80
2023-05-09T23:46:34.117Z,5.65
2023-05-09T23:49:35.930Z,6.00
2023-05-09T23:52:37.320Z,5.63
2023-05-09T23:55:38.762Z,5.47
2023-05-09T23:58:40.322Z,5.65
